Time;durP1;ratioP1;P1;durP2;ratioP2;P2;SDS_P1;SDS_P2;PMS_P1;PMS_P2;Temp;Humidity;BMP_temperature;BMP_pressure;BME280_temperature;BME280_humidity;BME280_pressure;Samples;Min_cycle;Max_cycle;Signal;HPM_P1;HPM_P2
2023/10/20 00:12:07;;;;;;;4.30;3.87;;;;;;;14.23;99.37;92923.94;5328768;23;20237;-84
2023/10/20 00:33:10;;;;;;;5.27;3.83;;;;;;;14.33;98.36;92903.25;4905468;29;20249;-86
2023/10/20 00:52:40;;;;;;;4.03;3.63;;;;;;;14.35;97.55;92864.63;4861619;29;20207;-83
2023/10/20 01:03:05;;;;;;;4.73;3.47;;;;;;;14.27;98.35;92859.78;4796547;29;20206;-85
2023/10/20 01:05:59;;;;;;;5.10;4.03;;;;;;;14.25;98.33;92861.84;4795698;29;20271;-84
2023/10/20 01:09:10;;;;;;;4.20;3.90;;;;;;;14.25;98.31;92854.03;4774045;29;20238;-83
2023/10/20 01:12:34;;;;;;;4.77;4.20;;;;;;;14.15;98.26;92846.03;4793130;29;20209;-85
2023/10/20 01:25:22;;;;;;;7.27;4.40;;;;;;;14.26;97.78;92800.00;4701724;30;20978;-85
2023/10/20 01:28:20;;;;;;;8.13;4.37;;;;;;;14.32;97.81;92802.47;4677647;30;20231;-83
2023/10/20 01:31:22;;;;;;;4.40;4.00;;;;;;;14.20;98.61;92801.72;4707638;30;20210;-84
2023/10/20 01:34:05;;;;;;;5.25;4.05;;;;;;;14.20;98.94;92796.50;4711788;30;20569;-82
2023/10/20 01:36:31;;;;;;;5.57;4.93;;;;;;;14.06;99.22;92787.41;4714777;30;20212;-84
2023/10/20 01:39:19;;;;;;;6.10;4.82;;;;;;;14.20;98.58;92774.84;4700881;30;20206;-85
2023/10/20 01:42:13;;;;;;;5.07;4.57;;;;;;;14.24;97.69;92768.91;4713694;30;20213;-85
2023/10/20 01:45:11;;;;;;;4.93;4.47;;;;;;;14.20;98.01;92762.56;4705815;30;20278;-85
2023/10/20 01:48:25;;;;;;;7.27;4.83;;;;;;;14.26;97.70;92751.19;4718435;30;20233;-86
2023/10/20 01:51:13;;;;;;;7.20;5.43;;;;;;;14.19;98.40;92729.69;4726678;30;20306;-85
2023/10/20 01:54:49;;;;;;;5.10;4.57;;;;;;;14.19;98.47;92721.84;4784625;29;20252;-86
2023/10/20 01:57:46;;;;;;;6.77;4.63;;;;;;;14.17;98.66;92710.88;4766973;29;20594;-85
2023/10/20 02:01:05;;;;;;;5.63;5.03;;;;;;;14.15;98.78;92705.91;4731403;30;20206;-85
2023/10/20 02:07:36;;;;;;;5.60;5.10;;;;;;;14.16;98.48;92685.81;4821034;29;20218;-83
2023/10/20 02:11:05;;;;;;;6.10;5.50;;;;;;;14.10;98.84;92671.88;4777158;29;20239;-84
2023/10/20 02:21:12;;;;;;;5.43;4.70;;;;;;;14.22;97.71;92645.69;4807605;29;20198;-84
2023/10/20 02:24:01;;;;;;;4.83;4.43;;;;;;;14.18;97.53;92631.53;4808787;29;20191;-84
2023/10/20 02:31:18;;;;;;;5.13;4.63;;;;;;;14.05;98.12;92613.63;4783845;29;20231;-84
2023/10/20 02:34:11;;;;;;;5.57;4.43;;;;;;;14.15;97.78;92626.81;4761227;30;20219;-84
2023/10/20 02:55:21;;;;;;;3.72;3.38;;;;;;;14.13;96.71;92632.28;5000396;28;20220;-85
2023/10/20 03:08:28;;;;;;;3.88;3.47;;;;;;;13.99;98.26;92622.41;4955281;28;20216;-85
2023/10/20 03:11:25;;;;;;;4.20;3.55;;;;;;;14.05;97.91;92621.47;4962810;28;20204;-83
2023/10/20 03:14:37;;;;;;;;;;;;;;;;;;;;;
2023/10/20 03:17:28;;;;;;;4.63;3.80;;;;;;;14.08;97.38;92620.97;4915405;29;20293;-84
2023/10/20 03:20:17;;;;;;;4.00;3.60;;;;;;;14.12;97.53;92609.00;4906185;29;20293;-84
2023/10/20 03:22:55;;;;;;;;;;;;;;;;;;;;;
2023/10/20 03:31:59;;;;;;;6.17;4.03;;;;;;;14.03;97.50;92551.22;4926411;29;20203;-85
2023/10/20 03:41:40;;;;;;;8.00;4.73;;;;;;;14.03;97.80;92499.03;5011907;23;20231;-85
2023/10/20 03:44:47;;;;;;;;;;;;;;;;;;;;;
2023/10/20 03:57:50;;;;;;;4.27;3.43;;;;;;;13.88;97.73;92455.31;4823297;29;20285;-83
2023/10/20 04:01:02;;;;;;;;;;;;;;;;;;;;;
2023/10/20 04:07:03;;;;;;;;;;;;;;;;;;;;;
2023/10/20 04:13:23;;;;;;;4.23;3.83;;;;;;;13.87;98.21;92450.34;4737657;30;20197;-83
2023/10/20 04:16:28;;;;;;;5.53;4.03;;;;;;;13.86;98.48;92441.72;4715276;30;20296;-83
2023/10/20 04:19:17;;;;;;;6.03;4.13;;;;;;;13.84;98.74;92424.75;4723031;30;20264;-82
2023/10/20 04:21:58;;;;;;;6.97;4.70;;;;;;;13.73;98.98;92399.56;4675329;30;20215;-82
2023/10/20 04:51:19;;;;;;;4.77;4.37;;;;;;;13.77;98.47;92320.59;4969054;28;20309;-83
2023/10/20 05:03:13;;;;;;;8.20;6.87;;;;;;;13.51;99.42;92266.63;4972158;28;20203;-82
2023/10/20 05:06:05;;;;;;;7.87;7.07;;;;;;;13.50;99.80;92267.66;4965078;28;20853;-84
2023/10/20 05:08:33;;;;;;;8.10;6.60;;;;;;;13.51;99.30;92264.00;4949907;28;20212;-85
2023/10/20 05:11:01;;;;;;;7.40;6.70;;;;;;;13.40;100.00;92251.91;4960905;28;20228;-83
2023/10/20 05:13:33;;;;;;;10.97;7.50;;;;;;;13.47;99.70;92248.09;4960165;28;20618;-83
2023/10/20 05:16:09;;;;;;;8.50;7.00;;;;;;;13.46;100.00;92233.47;4950367;28;20574;-85
2023/10/20 05:18:35;;;;;;;9.73;7.57;;;;;;;13.42;99.66;92223.78;4948561;28;20271;-78
2023/10/20 05:21:13;;;;;;;10.63;8.00;;;;;;;13.40;99.96;92221.41;4974704;28;20619;-78
2023/10/20 05:23:40;;;;;;;9.47;8.37;;;;;;;13.39;99.75;92219.84;4996036;28;20576;-83
2023/10/20 05:26:05;;;;;;;9.67;8.67;;;;;;;13.42;99.68;92234.97;4994097;28;20190;-83
2023/10/20 05:28:31;;;;;;;9.30;7.80;;;;;;;13.33;100.00;92226.81;5010680;28;20639;-83
2023/10/20 05:31:27;;;;;;;9.03;8.10;;;;;;;13.38;99.94;92220.09;5005423;28;20276;-82
2023/10/20 05:34:15;;;;;;;9.90;8.60;;;;;;;13.37;100.00;92205.50;4998170;28;20190;-83
2023/10/20 05:40:07;;;;;;;9.20;8.20;;;;;;;13.37;99.89;92167.19;5008732;28;20211;-84
2023/10/20 05:43:33;;;;;;;;;;;;;;;;;;;;;
2023/10/20 05:46:09;;;;;;;9.17;8.23;;;;;;;13.41;99.75;92167.47;5013419;28;20197;-83
2023/10/20 05:48:51;;;;;;;8.93;7.80;;;;;;;13.37;99.67;92180.22;5018861;28;20214;-84
2023/10/20 05:51:22;;;;;;;8.80;7.43;;;;;;;13.35;99.43;92163.28;4996838;28;20208;-82
2023/10/20 05:53:50;;;;;;;8.47;7.20;;;;;;;13.26;99.95;92160.31;5012234;28;20289;-81
2023/10/20 05:56:21;;;;;;;6.77;6.07;;;;;;;13.39;99.15;92153.91;5009697;28;20720;-85
2023/10/20 05:58:50;;;;;;;8.07;6.23;;;;;;;13.28;99.16;92145.22;5009764;28;20215;-85
2023/10/20 06:01:18;;;;;;;8.40;6.13;;;;;;;13.35;98.32;92134.59;5014653;28;20186;-83
2023/10/20 06:03:43;;;;;;;6.13;5.37;;;;;;;13.39;98.40;92120.81;5027404;28;20236;-85
2023/10/20 06:06:10;;;;;;;6.23;5.63;;;;;;;13.26;98.47;92111.59;5024882;28;20269;-85
2023/10/20 06:08:35;;;;;;;6.60;5.03;;;;;;;13.22;98.56;92087.06;5004364;28;20211;-85
2023/10/20 06:11:04;;;;;;;9.70;5.80;;;;;;;13.32;97.96;92073.31;5014295;28;20224;-83
2023/10/20 06:13:36;;;;;;;6.00;5.40;;;;;;;13.32;97.52;92066.28;4994519;28;20195;-83
2023/10/20 06:16:11;;;;;;;6.40;5.50;;;;;;;13.25;97.67;92047.50;5012648;28;20206;-84
2023/10/20 06:18:37;;;;;;;5.33;4.77;;;;;;;13.23;98.08;92033.91;4997518;28;20229;-84
2023/10/20 06:21:04;;;;;;;6.20;5.23;;;;;;;13.23;97.92;92028.69;5007114;28;20266;-86
2023/10/20 06:23:32;;;;;;;6.07;5.30;;;;;;;13.29;97.63;92035.53;5017222;28;20195;-84
2023/10/20 06:25:58;;;;;;;7.30;5.00;;;;;;;13.28;97.57;92041.00;5009677;28;20206;-82
2023/10/20 06:28:23;;;;;;;6.80;5.33;;;;;;;13.14;98.69;92040.56;5000061;28;20222;-84
2023/10/20 06:30:50;;;;;;;5.83;5.23;;;;;;;13.15;98.35;92042.16;5008423;28;21136;-84
2023/10/20 06:33:16;;;;;;;5.90;5.30;;;;;;;13.20;97.50;92037.03;5016481;28;20183;-85
2023/10/20 06:35:52;;;;;;;10.33;6.67;;;;;;;13.30;97.53;92024.06;5000713;28;20195;-84
2023/10/20 06:41:01;;;;;;;7.37;5.40;;;;;;;13.11;97.64;92035.88;5011434;28;20282;-82
2023/10/20 06:43:26;;;;;;;6.43;5.57;;;;;;;13.05;96.32;92019.41;4999732;28;20190;-83
2023/10/20 06:45:59;;;;;;;5.90;5.13;;;;;;;13.09;95.90;92031.97;5029336;28;20249;-82
2023/10/20 06:48:24;;;;;;;6.53;5.53;;;;;;;13.12;95.95;92015.81;4987408;28;20237;-83
2023/10/20 06:50:50;;;;;;;9.53;5.60;;;;;;;13.17;94.99;92013.28;5026811;28;20274;-84
2023/10/20 06:53:15;;;;;;;8.47;5.80;;;;;;;13.16;94.88;91999.44;4997304;28;20186;-83
2023/10/20 06:55:42;;;;;;;6.97;6.33;;;;;;;13.30;94.27;91998.00;5006418;28;20221;-83
2023/10/20 06:58:09;;;;;;;6.90;6.20;;;;;;;13.28;94.53;91981.84;5001271;28;20225;-83
2023/10/20 07:00:35;;;;;;;6.57;5.73;;;;;;;13.28;94.52;91987.06;5008834;28;20195;-84
2023/10/20 07:03:01;;;;;;;8.20;6.13;;;;;;;13.30;94.39;91982.38;5028109;28;20211;-83
2023/10/20 07:05:26;;;;;;;7.83;6.70;;;;;;;13.22;94.18;91992.47;5027190;28;20206;-85
2023/10/20 07:07:51;;;;;;;8.10;7.10;;;;;;;13.17;94.42;92003.63;5007540;28;20207;-84
2023/10/20 07:10:18;;;;;;;9.13;6.90;;;;;;;13.32;94.03;91995.94;5008290;28;20249;-81
2023/10/20 07:12:43;;;;;;;8.13;7.30;;;;;;;13.28;94.45;91974.03;5016926;28;20199;-79
2023/10/20 07:15:09;;;;;;;8.53;7.60;;;;;;;13.29;94.11;91946.94;5002739;28;20667;-81
2023/10/20 07:17:34;;;;;;;10.23;6.93;;;;;;;13.33;94.87;91965.44;5006946;28;20211;-81
2023/10/20 07:20:00;;;;;;;9.00;8.10;;;;;;;13.31;94.44;91977.94;5021133;28;20194;-81
2023/10/20 07:22:28;;;;;;;8.50;7.70;;;;;;;13.26;95.24;91986.53;5000232;28;20205;-80
2023/10/20 07:24:53;;;;;;;8.93;7.50;;;;;;;13.40;94.95;91986.09;5022494;28;20178;-78
2023/10/20 08:08:20;;;;;;;7.03;6.03;;;;;;;14.26;91.77;92032.69;4999771;28;20238;-79
2023/10/20 08:10:46;;;;;;;6.50;5.53;;;;;;;14.26;91.41;92015.22;4989069;28;20566;-78
2023/10/20 08:13:11;;;;;;;6.30;5.70;;;;;;;14.36;90.94;92020.47;4998696;28;20211;-77
2023/10/20 08:15:38;;;;;;;6.93;5.47;;;;;;;14.40;90.37;92031.97;5003281;28;20249;-82
2023/10/20 08:18:04;;;;;;;8.20;6.00;;;;;;;14.30;89.98;92042.34;5002601;28;21562;-83
2023/10/20 08:20:29;;;;;;;9.53;5.90;;;;;;;14.38;90.25;92039.25;4998718;28;20238;-84
2023/10/20 08:22:55;;;;;;;6.80;6.00;;;;;;;14.43;89.89;92044.50;4964958;28;20176;-84
2023/10/20 08:25:20;;;;;;;8.13;6.20;;;;;;;14.45;89.89;92052.09;4970925;28;20187;-83
2023/10/20 08:27:47;;;;;;;6.77;6.07;;;;;;;14.42;90.61;92050.78;4985528;28;20207;-84
2023/10/20 08:30:13;;;;;;;9.33;5.80;;;;;;;14.41;89.88;92058.88;4984936;28;20299;-82
2023/10/20 08:32:39;;;;;;;9.03;5.97;;;;;;;14.42;89.68;92057.81;4995595;28;20230;-80
2023/10/20 08:35:07;;;;;;;10.23;6.53;;;;;;;14.57;89.17;92078.00;4992624;28;20176;-82
2023/10/20 08:37:33;;;;;;;7.82;6.55;;;;;;;14.28;90.07;92111.50;4978876;28;20219;-80
2023/10/20 08:39:58;;;;;;;7.10;6.20;;;;;;;14.27;91.02;92113.34;5000738;28;20545;-80
2023/10/20 08:42:24;;;;;;;6.60;6.00;;;;;;;14.45;90.09;92123.38;4999706;28;20263;-80
2023/10/20 08:44:50;;;;;;;8.10;6.87;;;;;;;14.30;90.51;92125.09;4996578;28;20195;-82
2023/10/20 08:47:16;;;;;;;7.80;6.97;;;;;;;14.47;89.41;92132.78;4977365;28;20214;-80
2023/10/20 08:49:42;;;;;;;8.30;7.07;;;;;;;14.62;89.08;92151.91;4995690;28;20654;-79
2023/10/20 08:52:08;;;;;;;8.37;6.80;;;;;;;14.62;88.32;92170.19;5001354;28;20196;-79
2023/10/20 08:54:34;;;;;;;15.60;11.00;;;;;;;14.83;87.72;92183.34;4983331;28;20731;-80
2023/10/20 08:56:59;;;;;;;12.13;9.57;;;;;;;15.16;87.11;92190.00;4996760;28;20235;-82
2023/10/20 08:59:25;;;;;;;8.75;7.85;;;;;;;15.26;86.30;92176.94;5002144;28;20190;-83
2023/10/20 09:01:53;;;;;;;8.32;7.53;;;;;;;15.35;85.97;92172.78;5006028;28;20186;-83
2023/10/20 09:04:23;;;;;;;8.80;7.22;;;;;;;15.21;85.24;92171.72;5000759;28;20667;-81
2023/10/20 09:06:49;;;;;;;9.75;7.32;;;;;;;15.15;84.59;92165.69;4972610;28;20207;-82
2023/10/20 09:09:15;;;;;;;8.75;7.85;;;;;;;15.10;85.95;92163.06;4982034;28;20308;-83
2023/10/20 09:11:41;;;;;;;8.63;7.63;;;;;;;15.25;85.33;92167.53;4975023;28;20197;-83
2023/10/20 09:14:06;;;;;;;8.57;7.25;;;;;;;15.30;85.70;92175.41;5001607;28;20191;-83
2023/10/20 09:16:33;;;;;;;10.02;7.43;;;;;;;15.29;86.04;92179.06;4988072;28;20188;-85
2023/10/20 09:18:59;;;;;;;8.25;7.45;;;;;;;15.37;85.88;92180.38;4971565;28;20188;-84
2023/10/20 09:21:27;;;;;;;8.80;7.85;;;;;;;15.52;85.55;92186.41;4995096;28;20649;-84
2023/10/20 09:23:54;;;;;;;9.40;8.40;;;;;;;15.61;85.60;92188.56;5000923;28;20526;-83
2023/10/20 09:26:20;;;;;;;13.00;9.40;;;;;;;15.69;86.09;92174.97;5013831;28;20292;-82
2023/10/20 09:28:47;;;;;;;8.40;7.57;;;;;;;15.84;85.58;92185.44;4992170;28;20202;-84
2023/10/20 09:31:12;;;;;;;15.93;13.00;;;;;;;16.02;85.23;92178.91;4990025;28;20264;-84
2023/10/20 09:33:38;;;;;;;8.00;7.00;;;;;;;16.14;84.44;92174.19;4979090;28;20259;-84
2023/10/20 09:36:03;;;;;;;7.80;6.40;;;;;;;16.03;84.54;92181.25;4984848;28;20770;-84
2023/10/20 09:38:30;;;;;;;7.65;6.82;;;;;;;16.15;84.10;92181.75;4988362;28;20609;-85
2023/10/20 09:41:11;;;;;;;7.38;6.68;;;;;;;16.35;83.61;92185.44;4988677;28;20195;-83
2023/10/20 09:43:37;;;;;;;7.45;5.75;;;;;;;16.34;83.05;92183.84;4981481;28;20213;-84
2023/10/20 09:46:36;;;;;;;8.88;7.28;;;;;;;16.57;82.33;92183.28;5004097;28;20184;-83
2023/10/20 09:49:19;;;;;;;8.73;7.82;;;;;;;16.74;79.97;92203.19;4983902;28;20215;-83
2023/10/20 09:51:45;;;;;;;7.82;6.63;;;;;;;16.68;80.28;92221.53;4973612;28;20194;-83
2023/10/20 09:54:12;;;;;;;8.02;7.22;;;;;;;16.22;80.23;92238.31;4983683;28;20192;-84
2023/10/20 09:56:39;;;;;;;6.78;5.43;;;;;;;16.31;80.43;92231.50;4997357;28;20605;-82
2023/10/20 09:59:05;;;;;;;8.63;5.20;;;;;;;16.62;79.50;92235.69;4996749;28;20190;-84
2023/10/20 10:01:31;;;;;;;5.43;4.50;;;;;;;16.48;79.85;92234.63;4987256;28;20196;-84
2023/10/20 10:04:08;;;;;;;6.75;6.05;;;;;;;16.79;80.00;92230.16;5005264;28;20191;-83
2023/10/20 10:06:38;;;;;;;6.00;5.07;;;;;;;16.81;79.49;92238.53;5005059;28;20194;-84
2023/10/20 10:09:04;;;;;;;6.47;5.35;;;;;;;16.89;79.52;92245.09;5000619;28;20693;-84
2023/10/20 10:11:31;;;;;;;7.05;4.50;;;;;;;17.00;79.96;92251.84;4988151;28;20615;-83
2023/10/20 10:14:02;;;;;;;4.53;4.03;;;;;;;17.28;79.68;92250.44;4984579;28;20210;-84
2023/10/20 10:16:28;;;;;;;4.43;4.03;;;;;;;17.39;78.65;92259.06;5003927;28;20184;-84
2023/10/20 10:18:56;;;;;;;5.55;5.00;;;;;;;17.47;77.66;92253.25;4981479;28;20693;-84
2023/10/20 10:21:31;;;;;;;6.15;5.55;;;;;;;17.56;77.02;92256.88;4988278;28;20307;-84
2023/10/20 10:24:14;;;;;;;3.80;3.42;;;;;;;17.39;74.81;92265.09;4996867;28;20627;-83
2023/10/20 10:26:46;;;;;;;4.53;3.33;;;;;;;17.61;75.21;92270.00;5009622;28;20191;-83
2023/10/20 10:29:11;;;;;;;3.38;3.08;;;;;;;17.52;75.60;92261.91;5009876;28;20684;-82
2023/10/20 10:31:36;;;;;;;5.55;3.20;;;;;;;17.45;75.01;92258.78;4998151;28;20187;-83
2023/10/20 10:34:05;;;;;;;4.10;3.22;;;;;;;17.46;75.77;92268.22;4987469;28;20196;-85
2023/10/20 10:36:44;;;;;;;5.30;3.03;;;;;;;17.24;76.17;92263.31;5023003;28;20184;-85
2023/10/20 10:39:30;;;;;;;5.82;4.88;;;;;;;17.47;76.34;92269.00;4978322;28;20545;-83
2023/10/20 10:42:02;;;;;;;4.95;4.50;;;;;;;17.34;78.37;92264.34;5002795;28;20283;-82
2023/10/20 10:44:38;;;;;;;3.55;2.90;;;;;;;17.59;78.55;92277.34;5004740;28;20680;-84
2023/10/20 10:47:05;;;;;;;3.95;3.00;;;;;;;17.30;79.98;92273.78;5000070;28;20318;-84
2023/10/20 10:49:31;;;;;;;3.53;3.10;;;;;;;17.41;80.29;92280.56;4997455;28;20218;-84
2023/10/20 10:51:57;;;;;;;1.85;1.73;;;;;;;17.11;77.48;92289.31;5006569;28;20609;-82
2023/10/20 10:54:24;;;;;;;1.38;1.27;;;;;;;17.14;76.90;92294.00;5009585;28;20214;-84
2023/10/20 10:56:49;;;;;;;1.55;1.45;;;;;;;17.13;76.83;92301.09;5001718;28;20188;-82
2023/10/20 10:59:15;;;;;;;1.92;1.20;;;;;;;17.25;77.68;92304.22;4995322;28;20538;-81
2023/10/20 11:01:40;;;;;;;1.73;1.60;;;;;;;17.41;77.29;92301.56;4989330;28;20693;-83
2023/10/20 11:04:10;;;;;;;3.47;1.65;;;;;;;17.55;77.66;92310.41;4996903;28;20195;-83
2023/10/20 11:06:38;;;;;;;1.60;1.50;;;;;;;17.54;77.40;92300.97;5003142;28;20286;-83
2023/10/20 11:09:10;;;;;;;1.67;1.58;;;;;;;17.55;78.31;92294.66;4981795;28;20279;-82
2023/10/20 11:11:42;;;;;;;1.33;1.20;;;;;;;17.42;77.73;92313.63;4982577;28;20206;-82
2023/10/20 11:14:09;;;;;;;4.90;3.67;;;;;;;17.49;77.18;92307.03;5001739;28;20183;-83
2023/10/20 11:16:36;;;;;;;2.47;2.00;;;;;;;17.33;77.62;92315.22;4979826;28;20586;-83
2023/10/20 11:19:02;;;;;;;0.80;0.80;;;;;;;17.16;76.91;92323.41;4993273;28;20192;-82
2023/10/20 11:21:27;;;;;;;0.63;0.60;;;;;;;17.16;77.02;92318.16;5018339;28;20226;-83
2023/10/20 11:23:56;;;;;;;0.65;0.65;;;;;;;17.24;77.82;92321.00;4994125;28;20409;-83
2023/10/20 11:26:24;;;;;;;2.30;0.80;;;;;;;17.30;77.70;92323.59;4997059;28;20191;-84
2023/10/20 11:28:52;;;;;;;1.48;0.80;;;;;;;17.24;77.74;92323.63;5007505;28;20203;-82
2023/10/20 11:31:19;;;;;;;1.70;1.15;;;;;;;17.30;75.71;92332.25;5010254;28;20191;-84
2023/10/20 11:33:44;;;;;;;0.80;0.68;;;;;;;17.34;75.14;92329.91;4998124;28;20191;-81
2023/10/20 11:36:09;;;;;;;0.50;0.50;;;;;;;17.22;74.87;92338.81;4989012;28;20194;-83
2023/10/20 11:38:35;;;;;;;2.75;1.17;;;;;;;17.22;75.09;92341.44;4995900;28;20204;-83
2023/10/20 11:41:00;;;;;;;0.40;0.40;;;;;;;17.47;74.31;92331.94;5020697;28;20653;-83
2023/10/20 11:43:26;;;;;;;0.82;0.40;;;;;;;17.78;73.34;92332.66;5001029;28;20192;-83
2023/10/20 11:45:51;;;;;;;2.47;2.17;;;;;;;17.81;72.49;92342.59;4994872;28;20210;-85
2023/10/20 11:48:17;;;;;;;1.33;1.20;;;;;;;17.97;72.88;92348.56;4968252;28;20215;-83
2023/10/20 11:50:42;;;;;;;0.30;0.30;;;;;;;18.03;70.17;92355.38;4972859;28;20203;-82
2023/10/20 11:53:08;;;;;;;0.40;0.30;;;;;;;17.89;70.69;92344.66;5006877;28;20637;-81
2023/10/20 11:55:33;;;;;;;0.40;0.40;;;;;;;18.05;69.66;92353.25;4997287;28;20207;-83
2023/10/20 11:58:00;;;;;;;0.50;0.50;;;;;;;17.91;70.39;92362.78;4992576;28;20218;-84
2023/10/20 12:00:25;;;;;;;0.43;0.43;;;;;;;17.88;69.44;92366.72;5003913;28;20191;-84
2023/10/20 12:02:51;;;;;;;0.57;0.52;;;;;;;17.92;70.50;92364.34;4989554;28;20274;-84
2023/10/20 12:05:16;;;;;;;0.50;0.35;;;;;;;17.48;70.54;92370.25;4991552;28;20184;-82
2023/10/20 12:07:42;;;;;;;0.40;0.40;;;;;;;17.50;69.67;92389.16;4995975;28;20227;-84
2023/10/20 12:10:08;;;;;;;0.30;0.30;;;;;;;17.64;70.73;92379.63;4998336;28;20208;-83
2023/10/20 12:12:33;;;;;;;0.43;0.43;;;;;;;17.61;70.65;92389.91;4987579;28;20198;-84
2023/10/20 12:15:00;;;;;;;0.30;0.30;;;;;;;17.56;69.94;92401.97;5006557;28;20679;-83
2023/10/20 12:17:25;;;;;;;0.45;0.43;;;;;;;17.85;69.58;92396.16;4998490;28;20203;-84
2023/10/20 12:19:50;;;;;;;0.38;0.38;;;;;;;17.75;69.44;92393.53;5024379;28;20208;-81
2023/10/20 12:22:17;;;;;;;0.40;0.40;;;;;;;18.18;68.66;92383.38;4983168;28;20192;-84
2023/10/20 12:24:42;;;;;;;0.30;0.30;;;;;;;18.54;67.67;92381.34;4996943;28;20199;-82
2023/10/20 12:27:09;;;;;;;0.35;0.35;;;;;;;18.37;67.60;92393.00;4992585;28;20207;-84
2023/10/20 12:29:35;;;;;;;0.38;0.38;;;;;;;18.43;68.02;92396.38;4994750;28;20736;-84
2023/10/20 12:32:00;;;;;;;0.73;0.60;;;;;;;18.26;68.04;92394.09;4996130;28;20219;-83
2023/10/20 12:34:26;;;;;;;0.38;0.38;;;;;;;17.79;68.06;92405.88;4996629;28;20183;-84
2023/10/20 12:36:51;;;;;;;0.50;0.50;;;;;;;18.11;68.10;92417.84;4990488;28;20222;-83
2023/10/20 12:39:17;;;;;;;0.60;0.47;;;;;;;18.13;67.34;92418.34;4972820;28;20357;-83
2023/10/20 12:41:49;;;;;;;1.23;0.90;;;;;;;18.17;68.07;92413.31;5011038;28;20259;-83
2023/10/20 12:44:15;;;;;;;2.08;1.23;;;;;;;18.62;67.79;92422.81;5004711;28;20286;-80
2023/10/20 12:46:40;;;;;;;3.13;2.83;;;;;;;18.66;66.17;92416.78;4998214;28;20665;-80
2023/10/20 12:49:06;;;;;;;1.63;1.48;;;;;;;18.78;65.74;92410.38;4992850;28;20231;-82
2023/10/20 12:51:33;;;;;;;1.40;1.30;;;;;;;18.63;66.08;92421.75;4979622;28;20210;-84
2023/10/20 12:53:58;;;;;;;2.25;1.40;;;;;;;18.54;66.26;92433.88;4994599;28;20626;-85
2023/10/20 12:56:24;;;;;;;5.13;4.50;;;;;;;18.49;65.51;92431.31;5003447;28;20234;-84
2023/10/20 12:58:49;;;;;;;0.80;0.80;;;;;;;18.15;66.56;92437.25;4993281;28;20575;-82
2023/10/20 13:01:15;;;;;;;0.30;0.30;;;;;;;18.05;65.11;92435.44;4989056;28;20282;-82
2023/10/20 13:03:42;;;;;;;1.38;0.50;;;;;;;18.13;67.00;92439.34;5004835;28;20187;-82
2023/10/20 13:06:07;;;;;;;1.40;0.57;;;;;;;18.15;66.45;92429.34;4994098;28;20192;-82
2023/10/20 13:08:33;;;;;;;0.60;0.60;;;;;;;18.36;66.67;92438.69;4982786;28;20196;-83
2023/10/20 13:10:58;;;;;;;0.68;0.40;;;;;;;18.02;65.14;92432.53;4980401;28;20210;-84
2023/10/20 13:13:24;;;;;;;0.43;0.30;;;;;;;18.08;65.46;92437.53;4985223;28;20679;-84
2023/10/20 13:15:50;;;;;;;0.73;0.35;;;;;;;18.20;64.83;92439.84;5004056;28;20194;-83
2023/10/20 13:18:15;;;;;;;0.30;0.30;;;;;;;17.91;65.13;92454.66;5004643;28;20208;-82
2023/10/20 13:20:41;;;;;;;0.40;0.30;;;;;;;17.96;65.56;92465.94;4988177;28;20289;-84
2023/10/20 13:23:06;;;;;;;1.27;0.50;;;;;;;18.20;65.35;92454.81;4980256;28;20192;-82
2023/10/20 13:25:35;;;;;;;0.20;0.20;;;;;;;17.77;64.13;92452.59;4985152;28;20290;-84
2023/10/20 13:28:02;;;;;;;1.00;0.68;;;;;;;17.89;64.86;92457.53;4988662;28;20211;-84
2023/10/20 13:30:27;;;;;;;0.60;0.60;;;;;;;17.83;65.32;92459.38;4991136;28;20207;-83
2023/10/20 13:32:52;;;;;;;0.57;0.40;;;;;;;17.66;65.57;92458.09;5020386;28;20198;-82
2023/10/20 13:35:18;;;;;;;0.47;0.30;;;;;;;17.94;65.88;92449.66;4982418;28;20197;-82
2023/10/20 13:37:44;;;;;;;0.55;0.30;;;;;;;17.72;66.18;92462.31;4987102;28;20211;-82
2023/10/20 13:40:10;;;;;;;0.45;0.32;;;;;;;17.40;66.78;92466.00;4974228;28;20664;-84
2023/10/20 13:42:36;;;;;;;0.75;0.50;;;;;;;17.59;67.32;92466.25;4999859;28;20191;-82
2023/10/20 13:45:03;;;;;;;0.40;0.40;;;;;;;17.55;68.19;92483.56;4995580;28;20191;-82
2023/10/20 13:47:28;;;;;;;0.60;0.30;;;;;;;17.49;67.24;92489.84;4976040;28;20625;-81
2023/10/20 13:49:54;;;;;;;0.28;0.28;;;;;;;17.12;67.22;92493.53;4999724;28;20211;-84
2023/10/20 13:52:19;;;;;;;0.30;0.30;;;;;;;17.10;67.88;92494.84;4989959;28;20191;-83
2023/10/20 13:54:44;;;;;;;0.75;0.30;;;;;;;17.10;67.99;92490.41;4996467;28;20211;-81
2023/10/20 13:57:10;;;;;;;0.40;0.28;;;;;;;17.20;67.68;92485.16;4987055;28;20218;-81
2023/10/20 13:59:35;;;;;;;0.65;0.30;;;;;;;17.17;67.85;92488.31;5004488;28;20191;-84
2023/10/20 14:02:00;;;;;;;0.30;0.30;;;;;;;17.26;66.95;92489.34;5013577;28;20210;-82
2023/10/20 14:04:26;;;;;;;0.82;0.38;;;;;;;16.88;68.14;92498.50;4994963;28;20183;-86
2023/10/20 14:06:54;;;;;;;0.38;0.30;;;;;;;16.94;68.38;92513.19;5009915;28;20841;-84
2023/10/20 14:09:20;;;;;;;0.70;0.50;;;;;;;16.78;69.29;92529.13;4992555;28;20203;-83
2023/10/20 14:11:45;;;;;;;0.40;0.30;;;;;;;16.79;68.87;92547.22;4996137;28;20206;-83
2023/10/20 14:14:11;;;;;;;0.80;0.40;;;;;;;16.61;69.63;92556.31;5007490;28;20608;-83
2023/10/20 14:16:37;;;;;;;0.20;0.20;;;;;;;16.50;70.20;92553.91;4985928;28;20536;-82
2023/10/20 14:19:03;;;;;;;0.38;0.38;;;;;;;16.63;70.89;92562.09;4995138;28;20190;-83
2023/10/20 14:21:28;;;;;;;0.20;0.20;;;;;;;16.38;71.56;92573.25;4992546;28;20683;-84
2023/10/20 14:23:54;;;;;;;1.40;0.30;;;;;;;16.33;72.04;92564.56;5009515;28;20194;-84
2023/10/20 14:26:19;;;;;;;2.05;0.30;;;;;;;16.19;72.35;92579.97;4994684;28;20176;-84
2023/10/20 14:28:44;;;;;;;0.30;0.30;;;;;;;16.08;72.68;92583.56;4996908;28;20211;-81
2023/10/20 14:31:11;;;;;;;0.55;0.40;;;;;;;16.11;72.20;92589.06;5008256;28;20215;-82
2023/10/20 14:33:36;;;;;;;0.43;0.40;;;;;;;16.11;72.11;92581.22;5003212;28;20191;-83
2023/10/20 14:36:01;;;;;;;0.82;0.40;;;;;;;16.21;72.15;92562.16;5006957;28;20171;-85
2023/10/20 14:38:27;;;;;;;0.52;0.40;;;;;;;16.02;74.64;92567.03;5010280;28;20195;-84
2023/10/20 14:41:04;;;;;;;0.40;0.40;;;;;;;15.95;74.18;92576.94;5012934;28;20182;-82
2023/10/20 14:43:32;;;;;;;0.38;0.30;;;;;;;16.04;73.30;92566.78;4999298;28;20193;-85
2023/10/20 14:45:58;;;;;;;0.40;0.40;;;;;;;16.05;72.96;92568.34;4990070;28;20207;-85
2023/10/20 14:48:23;;;;;;;1.15;0.40;;;;;;;15.94;73.40;92582.41;5005379;28;20306;-85
2023/10/20 14:50:50;;;;;;;0.38;0.38;;;;;;;15.77;72.38;92587.81;5009157;28;20665;-83
2023/10/20 14:53:15;;;;;;;0.20;0.20;;;;;;;15.73;72.36;92603.22;5013620;28;20269;-85
2023/10/20 14:55:40;;;;;;;0.73;0.40;;;;;;;15.57;72.93;92625.81;5015868;28;20191;-81
2023/10/20 14:58:06;;;;;;;0.20;0.20;;;;;;;15.73;71.59;92605.84;5006705;28;20775;-85
2023/10/20 15:00:31;;;;;;;1.17;0.30;;;;;;;15.58;72.91;92621.38;5014410;28;20210;-80
2023/10/20 15:02:57;;;;;;;1.38;0.40;;;;;;;15.22;72.68;92613.22;5003692;28;20187;-85
2023/10/20 15:05:22;;;;;;;0.60;0.60;;;;;;;15.22;71.19;92615.81;5010733;28;20184;-84
2023/10/20 15:07:48;;;;;;;1.02;0.85;;;;;;;15.09;71.38;92610.97;5004984;28;20790;-84
2023/10/20 15:10:15;;;;;;;2.92;2.50;;;;;;;14.97;72.48;92621.56;5002884;28;20316;-81
2023/10/20 15:12:42;;;;;;;3.67;2.40;;;;;;;15.15;71.92;92628.28;5005695;28;20199;-80
2023/10/20 15:15:10;;;;;;;4.85;2.40;;;;;;;15.06;72.29;92626.38;5016514;28;20183;-80
2023/10/20 15:17:36;;;;;;;1.90;0.87;;;;;;;15.11;72.23;92642.13;5018209;28;20192;-80
2023/10/20 15:20:02;;;;;;;0.93;0.82;;;;;;;14.95;72.57;92639.31;5010621;28;20194;-83
2023/10/20 15:22:28;;;;;;;2.67;1.90;;;;;;;15.16;72.72;92650.00;5029548;28;20172;-81
2023/10/20 15:24:54;;;;;;;5.63;3.03;;;;;;;14.94;72.81;92645.59;5006917;28;20203;-81
2023/10/20 15:27:19;;;;;;;1.50;1.40;;;;;;;15.14;72.21;92641.63;5013678;28;20218;-81
2023/10/20 15:29:44;;;;;;;0.67;0.67;;;;;;;14.92;72.17;92650.25;5013906;28;20195;-82
2023/10/20 15:32:11;;;;;;;0.83;0.70;;;;;;;15.07;72.61;92659.31;4991048;28;20179;-80
2023/10/20 15:34:37;;;;;;;0.77;0.77;;;;;;;14.94;72.76;92658.66;5008325;28;20184;-81
2023/10/20 15:37:02;;;;;;;0.50;0.50;;;;;;;14.98;73.17;92662.34;5006773;28;20251;-82
2023/10/20 15:39:28;;;;;;;1.20;1.10;;;;;;;15.09;71.92;92655.41;5026086;28;20187;-81
2023/10/20 15:41:53;;;;;;;1.10;1.00;;;;;;;15.18;72.15;92671.44;5000813;28;20652;-84
2023/10/20 15:44:19;;;;;;;0.30;0.30;;;;;;;14.90;72.86;92667.22;4984796;28;20233;-83